Ashburn, VA (20148)

9:41 PM EDT on October 17, 2017 (GMT -0400)
Alexander's Chase | | Change Station
Active Advisory: Frost Advisory

Elev 420 ft 39.00 °N, 77.53 °W | Updated 13 seconds ago

Clear
Clear
46.0 °F
Feels Like 46 °F
N
0.0
Wind Variable Wind from SE
Gusts 0.0 mph

Today
High -- | Low -- °F
--% Chance of Precip.
Yesterday
High -- | Low -- °F
Precip. -- in
Pressure 30.32 in
Visibility 10.0 miles
Clouds Clear
Windchill 46 °F
Dew Point 36 °F
Humidity 69%
Rainfall 0.00 in
Snow Depth Not available.
7:21 AM 6:28 PM
Waning Crescent, 3% visible
METAR KIAD 180052Z 17003KT 10SM CLR 08/03 A3031 RMK AO2 SLP265 T00830033
Pressure 30.32 in
Visibility 10.0 miles
Clouds Clear
Windchill 46 °F
Dew Point 36 °F
Humidity 69%
Rainfall 0.00 in
Snow Depth Not available.
7:21 AM 6:28 PM
Waning Crescent, 3% visible
METAR KIAD 180052Z 17003KT 10SM CLR 08/03 A3031 RMK AO2 SLP265 T00830033

Get Your Daily Forecast Email!

Thanks for signing up!

Be on the lookout for a verification email in your inbox.

You'll start receiving severe weather alerts in your inbox..

×

10-Day Weather Forecast

Almanac

Astronomy

Oct. 17, 2017 Rise Set
Actual Time
Civil Twilight
Nautical Twilight
Astronomical Twilight
Moon
Length of Visible Light
Length of Day
Tomorrow will be .
, % of the Moon is Illuminated

Today's Extremes

State Highs State Lows

Community

WunderPhotos

Category 6

Welcome to Category 6. This is the collective home for Weather Underground's featured writeups by Dr. Jeff Masters (right), Bob Henson (left), Chris Burt, and other regular contributors.

Nearby

Air Quality

  Air Quality AQ Index Pollutant
Not available.

Snow Depth

Station Depth Elevation

Earthquake Activity

City Distance Mag. Time & Date
Minimum magnitude displayed is 2.5.

Coastal Water Temperatures

Place Temperature

Stations

Nearby Weather Stations

Station Location Temp. Windchill Dew Point Humidity Wind Precip. Elev Updated Type
                   

Watches & Warnings

Frost Advisory
Issued: 2:19 PM EDT Oct. 17, 2017 – National Weather Service

... Frost advisory remains in effect from 1 am to 9 am EDT
Wednesday...

* temperatures... dropping into the mid 30s by dawn, especially
away from larger bodies of water and urban areas.

* Impacts... a frost advisory means that widespread frost is
expected. Sensitive outdoor plants may be killed if left
uncovered.

Precautionary/preparedness actions...

A frost advisory means that widespread frost is expected.
Sensitive outdoor plants may be killed if left uncovered.